ETSIETSH

Guest
Details From ETSI - Ingolstadt Manching
To ETSH - Holzdorf
Flight Number -
Tags generated
Created
Modified
Stats Distance 194 nm / 359 km
Max Altitude 19,000 ft / 5,791 m
Waypoints 3
Social Downloads 0
Likes 0
Share VATSIM

Download

Looking for another format? Having issues loading an existing format? Contact us
Advertisement - Login to hide

Notes

Basic altitude profile: - Ascent Rate: 2500ft/min - Ascent Speed: 250kts - Cruise Altitude: 35000ft - Cruise Speed: 420kts - Descent Rate: 1500ft/min - Descent Speed: 250kts Options: - Use NATs: yes - Use PACOTS: yes - Use low airways: yes - Use high airways: yes

Route

ETSI VARIK ETSH

ID Type Via Altitude Latitude Longitude Leg Dist Tot Dist Heading (true) Name
O ETSI APT - 0 ft / 0 m 48.71509˚ 11.53406˚ - 0 nm - Ingolstadt Manching
VARIK FIX - 19,000 ft / 5,791 m 50.29111˚ 12.38111˚ 100 nm 100 nm 19° / 20° -
O ETSH APT - 0 ft / 0 m 51.76783˚ 13.16767˚ 93 nm 193 nm 18° / 19° Holzdorf

Altitude Profile

Advertisement - Login to hide

Weather


0- 5 10 15 20 25 30 35+ Temperature / ° C

Clouds and Precipitation
Forecast for 2017-12-17 00:00 UTC. Updated 2 hours ago

Ground ~20,000 ft ~40,000 ft Winds

ETSI

Details ICAO ETSI
Name Ingolstadt Manching
Region Germany - Military
Timezone Europe/Berlin (UTC+1.0)
Stats Elevation 1,202 ft / 366 m (AMSL)
Location 48.715095° 11.534059°
Runways 2
Magnetic Variation 3.112° E

METAR

ETSI 162220Z AUTO 25006KT //// // ////// 00/M01 Q1016 ///

Decode

TAF

Not found

Departure Runways

ID Width Length Bearing (true) Bearing (mag) Surface Threshold Offset Overrun Length
07L 98 ft / 30 m 7,983 ft / 2,433 m 67.94° 64.83° Concrete 0 ft / 0 m 1,506 ft / 459 m
07R 197 ft / 60 m 9,642 ft / 2,939 m 68.14° 65.03° Asphalt 0 ft / 0 m 1,066 ft / 325 m
25L 197 ft / 60 m 9,642 ft / 2,939 m 248.17° 245.06° Asphalt 0 ft / 0 m 1,066 ft / 325 m
25R 98 ft / 30 m 7,983 ft / 2,433 m 247.97° 244.86° Concrete 602 ft / 183 m 1,050 ft / 320 m

ETSH

Details ICAO ETSH
Name Holzdorf
Region Germany - Military
Timezone Europe/Berlin (UTC+1.0)
Stats Elevation 265 ft / 81 m (AMSL)
Location 51.767834° 13.167667°
Runways 1
Magnetic Variation 3.673° E

METAR

ETSH 162220Z 24007KT 9999 FEW013 BKN030 02/01 Q1012 BLU

Decode

TAF

Not found

Destination Runways

ID Width Length Bearing (true) Bearing (mag) Surface Threshold Offset Overrun Length
09 98 ft / 30 m 7,919 ft / 2,414 m 93.51° 89.84° Asphalt 0 ft / 0 m 1,001 ft / 305 m
27 98 ft / 30 m 7,919 ft / 2,414 m 273.54° 269.87° Asphalt 0 ft / 0 m 1,001 ft / 305 m

Approach Navaids

Runway Type Ident Frequency Range Bearing (true) Bearing (mag) Slope Elevation
27 Localiser IHDW 111.70 MHz 18 nm / 33 km 273.62° 269.95° - 264 ft / 80 m (AMSL)
27 Glidescope IHDW 111.70 MHz 10 nm / 19 km 273.52° 269.85° 3.00° 296 ft / 90 m (AMSL)